Huvudsida
METAR-TAF:

METAR-TAF

Flygplatser :

Dammam, Saudiarabien

latitud: 26-28N, longitud: 049-47E, höjd: 22 m

Aktuellt väderrapport

Denna rapport gjordes för 54 minuter sedan, klockan 07:00 UTC
Stilla vind
Temperatur 22°C
Fuktighet 43%
Tryck 1020 hPa
Sikt 10 km eller mer
Inga moln under 1 500 m eller inga cumulonimbus

METAR: OEDF 220700Z 00000KT CAVOK 22/09 Q1020 NOSIG

Tid: 10:54 (07:54 UTC)

Väderprognos

Denna rapport gjordes för 5 timmar och 39 minuter sedan, klockan 02:15 UTC
Prognos gäller från 22 kl. 06 UTC till 23 kl. 12 UTC
Vind 5 kt varierande vindriktning
Sikt: 8000 m
Blir
från 22 kl. 08 UTC till 22 kl. 10 UTC
Vind 12 kt från ost
Blir
från 22 kl. 17 UTC till 22 kl. 19 UTC
Vind 5 kt varierande vindriktning
Temporärt
från 22 kl. 23 UTC till 23 kl. 05 UTC
Sikt: 4000 m
fuktdis

TAF: OEDF 220215Z 2206/2312 VRB05KT 8000 NSC BECMG 2208/2210 08012KT BECMG 2217/2219 VRB05KT TEMPO 2223/2305 4000 BR

Aktuella väderrapporter och prognoser från 4000 flygplatser (METAR- och TAF-rapporter).

De tillgängliga stationerna syns som gula och röda prickar på kartan.

För musen över prickarna för att se namnen på stationerna.

Klicka sedan för att få väderrapporter och prognoser.

För att ändra kartan: Klicka på de gröna knapparna med ett svart kors på för att zooma in; den gröna knappen med ett streck på för att zooma ut; eller på de gröna pilarna för angränsande kartor.


METAR-TAF: